createdAt,value
2018-09-20T00:00:10.580Z,18.35
2018-09-20T00:02:39.185Z,18.31
2018-09-20T00:05:07.526Z,18.39
2018-09-20T00:07:36.114Z,18.31
2018-09-20T00:10:05.234Z,18.22
2018-09-20T00:12:33.851Z,18.23
2018-09-20T00:15:02.513Z,18.11
2018-09-20T00:17:31.116Z,18.03
2018-09-20T00:19:59.810Z,17.93
2018-09-20T00:22:28.370Z,17.84
2018-09-20T00:24:56.987Z,17.74
2018-09-20T00:27:25.641Z,17.68
2018-09-20T00:29:54.228Z,17.63
2018-09-20T00:32:22.832Z,17.59
2018-09-20T00:34:51.445Z,17.54
2018-09-20T00:37:20.013Z,17.49
2018-09-20T00:39:48.616Z,17.45
2018-09-20T00:42:17.241Z,17.42
2018-09-20T00:44:45.850Z,17.39
2018-09-20T00:47:14.513Z,17.38
2018-09-20T00:49:43.162Z,17.33
2018-09-20T00:52:11.764Z,17.39
2018-09-20T00:54:40.436Z,17.44
2018-09-20T00:57:09.075Z,17.59
2018-09-20T00:59:37.704Z,17.54
2018-09-20T01:02:06.505Z,17.54
2018-09-20T01:04:35.087Z,17.51
2018-09-20T01:07:04.013Z,17.46
2018-09-20T01:09:32.654Z,17.41
2018-09-20T01:12:01.241Z,17.38
2018-09-20T01:14:29.919Z,17.38
2018-09-20T01:16:58.662Z,17.30
2018-09-20T01:19:27.283Z,17.24
2018-09-20T01:21:56.852Z,17.16
2018-09-20T01:24:25.499Z,17.10
2018-09-20T01:26:54.134Z,17.07
2018-09-20T01:29:22.723Z,17.07
2018-09-20T01:31:51.377Z,17.05
2018-09-20T01:34:20.117Z,17.01
2018-09-20T01:36:48.705Z,16.97
2018-09-20T01:39:17.422Z,16.94
2018-09-20T01:41:46.041Z,16.89
2018-09-20T01:44:14.695Z,16.92
2018-09-20T01:46:43.327Z,16.95
2018-09-20T01:49:11.923Z,16.95
2018-09-20T01:51:40.495Z,16.93
2018-09-20T01:54:09.104Z,16.95
2018-09-20T01:56:37.724Z,16.96
2018-09-20T01:59:06.348Z,16.96
2018-09-20T02:01:34.978Z,16.93
2018-09-20T02:04:03.566Z,17.05
2018-09-20T02:06:32.203Z,17.08
2018-09-20T02:09:00.775Z,17.13
2018-09-20T02:11:29.467Z,17.02
2018-09-20T02:13:59.102Z,16.89
2018-09-20T02:16:27.708Z,16.79
2018-09-20T02:18:56.317Z,16.76
2018-09-20T02:21:24.921Z,16.80
2018-09-20T02:23:53.520Z,16.70
2018-09-20T02:26:22.113Z,16.64
2018-09-20T02:28:50.728Z,16.56
2018-09-20T02:31:19.464Z,16.53
2018-09-20T02:33:48.074Z,16.54
2018-09-20T02:36:16.704Z,16.51
2018-09-20T02:38:45.373Z,16.50
2018-09-20T02:41:13.972Z,16.52
2018-09-20T02:43:42.569Z,16.51
2018-09-20T02:46:11.206Z,16.46
2018-09-20T02:48:39.800Z,16.43
2018-09-20T02:51:08.385Z,16.42
2018-09-20T02:53:37.007Z,16.40
2018-09-20T02:56:05.658Z,16.36
2018-09-20T02:58:34.247Z,16.37
2018-09-20T03:01:02.853Z,16.37
2018-09-20T03:03:31.458Z,16.32
2018-09-20T03:06:00.122Z,16.29
2018-09-20T03:08:29.295Z,16.31
2018-09-20T03:10:57.962Z,16.29
2018-09-20T03:13:26.571Z,16.27
2018-09-20T03:15:55.211Z,16.26
2018-09-20T03:18:23.913Z,16.24
2018-09-20T03:20:52.506Z,16.21
2018-09-20T03:23:21.177Z,16.21
2018-09-20T03:25:49.814Z,16.19
2018-09-20T03:28:18.399Z,16.20
2018-09-20T03:30:47.058Z,16.32
2018-09-20T03:33:15.717Z,16.40
2018-09-20T03:35:44.437Z,16.48
2018-09-20T03:38:13.087Z,16.45
2018-09-20T03:40:41.811Z,16.45
2018-09-20T03:43:10.503Z,16.54
2018-09-20T03:45:39.102Z,16.58
2018-09-20T03:48:08.830Z,16.60
2018-09-20T03:50:37.427Z,16.55
2018-09-20T03:53:06.191Z,16.58
2018-09-20T03:55:34.835Z,16.56
2018-09-20T03:58:03.422Z,16.58
2018-09-20T04:00:32.071Z,16.51
2018-09-20T04:03:00.793Z,16.46
2018-09-20T04:05:29.353Z,16.46
2018-09-20T04:08:03.533Z,16.42
2018-09-20T04:10:32.101Z,16.46
2018-09-20T04:13:00.709Z,16.43
2018-09-20T04:15:29.364Z,16.41
2018-09-20T04:17:57.948Z,16.37
2018-09-20T04:20:26.597Z,16.32
2018-09-20T04:22:55.223Z,16.25
2018-09-20T04:25:23.828Z,16.20
2018-09-20T04:27:52.462Z,16.14
2018-09-20T04:30:21.111Z,16.14
2018-09-20T04:32:49.752Z,16.24
2018-09-20T04:35:18.960Z,16.27
2018-09-20T04:37:47.548Z,16.23
2018-09-20T04:40:16.280Z,16.22
2018-09-20T04:42:44.881Z,16.21
2018-09-20T04:45:13.496Z,16.23
2018-09-20T04:47:42.106Z,16.29
2018-09-20T04:50:10.701Z,16.32
2018-09-20T04:52:39.331Z,16.36
2018-09-20T04:55:08.532Z,16.38
2018-09-20T04:57:37.316Z,16.40
2018-09-20T05:00:06.171Z,16.42
2018-09-20T05:02:34.975Z,16.46
2018-09-20T05:05:03.715Z,16.50
2018-09-20T05:07:32.483Z,16.57
2018-09-20T05:10:01.141Z,16.60
2018-09-20T05:12:29.855Z,16.64
2018-09-20T05:14:58.642Z,16.68
2018-09-20T05:17:27.299Z,16.73
2018-09-20T05:19:55.980Z,16.79
2018-09-20T05:22:24.698Z,16.85
2018-09-20T05:24:53.468Z,16.93
2018-09-20T05:27:22.243Z,16.99
2018-09-20T05:29:50.901Z,17.03
2018-09-20T05:32:19.635Z,17.10
2018-09-20T05:34:48.422Z,17.17
2018-09-20T05:37:17.033Z,17.22
2018-09-20T05:39:45.710Z,17.32
2018-09-20T05:42:14.406Z,17.39
2018-09-20T05:44:43.100Z,17.47
2018-09-20T05:47:11.751Z,17.56
2018-09-20T05:49:41.695Z,17.66
2018-09-20T05:52:10.364Z,17.78
2018-09-20T05:54:38.986Z,17.85
2018-09-20T05:57:07.599Z,17.97
2018-09-20T05:59:36.285Z,18.08
2018-09-20T06:02:04.902Z,18.18
2018-09-20T06:04:33.565Z,18.34
2018-09-20T06:07:02.287Z,18.39
2018-09-20T06:09:30.904Z,18.55
2018-09-20T06:11:59.499Z,18.64
2018-09-20T06:14:28.096Z,18.79
2018-09-20T06:16:56.799Z,18.90
2018-09-20T06:19:25.387Z,19.05
2018-09-20T06:21:54.205Z,19.28
2018-09-20T06:24:22.767Z,19.42
2018-09-20T06:26:51.379Z,19.43
2018-09-20T06:29:19.965Z,19.48
2018-09-20T06:31:48.546Z,19.68
2018-09-20T06:34:17.163Z,19.76
2018-09-20T06:36:45.794Z,19.90
2018-09-20T06:39:14.374Z,20.00
2018-09-20T06:41:48.035Z,20.12
2018-09-20T06:44:16.655Z,20.16
2018-09-20T06:46:45.251Z,20.22
2018-09-20T06:49:13.837Z,20.36
2018-09-20T06:51:42.492Z,20.41
2018-09-20T06:54:11.149Z,20.52
2018-09-20T06:56:39.829Z,20.63
2018-09-20T06:59:08.505Z,20.63
2018-09-20T07:01:37.240Z,20.73
2018-09-20T07:04:05.864Z,20.83
2018-09-20T07:06:34.507Z,21.00
2018-09-20T07:09:03.234Z,21.10
2018-09-20T07:11:31.850Z,21.27
2018-09-20T07:14:00.514Z,21.33
2018-09-20T07:16:29.159Z,21.47
2018-09-20T07:18:57.867Z,21.52
2018-09-20T07:21:26.689Z,21.59
2018-09-20T07:23:55.321Z,21.68
2018-09-20T07:26:24.574Z,21.70
2018-09-20T07:28:53.254Z,21.83
2018-09-20T07:31:21.894Z,21.74
2018-09-20T07:33:50.556Z,21.87
2018-09-20T07:36:19.242Z,21.98
2018-09-20T07:38:47.958Z,22.05
2018-09-20T07:41:16.596Z,22.20
2018-09-20T07:43:45.234Z,22.18
2018-09-20T07:46:13.914Z,22.27
2018-09-20T07:48:42.583Z,22.40
2018-09-20T07:51:11.222Z,22.48
2018-09-20T07:53:39.950Z,22.57
2018-09-20T07:56:08.619Z,22.52
2018-09-20T07:58:37.510Z,22.60
2018-09-20T08:01:06.174Z,22.77
2018-09-20T08:03:34.875Z,22.83
2018-09-20T08:06:03.514Z,23.00
2018-09-20T08:08:32.148Z,23.07
2018-09-20T08:11:06.286Z,23.17
2018-09-20T08:13:34.946Z,23.17
2018-09-20T08:16:10.039Z,23.19
2018-09-20T08:18:38.679Z,23.28
2018-09-20T08:21:07.830Z,23.31
2018-09-20T08:23:36.491Z,23.53
2018-09-20T08:26:05.111Z,23.62
2018-09-20T08:28:34.008Z,23.59
2018-09-20T08:31:02.676Z,23.57
2018-09-20T08:33:31.352Z,23.63
2018-09-20T08:36:00.011Z,23.75
2018-09-20T08:38:28.632Z,23.68
2018-09-20T08:40:57.280Z,23.80
2018-09-20T08:43:25.896Z,23.86
2018-09-20T08:45:54.555Z,23.89
2018-09-20T08:48:23.187Z,24.05
2018-09-20T08:50:51.837Z,24.14
2018-09-20T08:53:20.535Z,24.13
2018-09-20T08:55:49.201Z,24.28
2018-09-20T08:58:17.831Z,24.36
2018-09-20T09:00:46.518Z,24.31
2018-09-20T09:03:15.155Z,24.31
2018-09-20T09:05:43.851Z,24.41
2018-09-20T09:08:12.532Z,24.49
2018-09-20T09:10:41.178Z,24.61
2018-09-20T09:13:09.810Z,24.75
2018-09-20T09:15:38.446Z,24.85
2018-09-20T09:18:07.064Z,24.89
2018-09-20T09:20:35.707Z,24.99
2018-09-20T09:23:04.368Z,25.08
2018-09-20T09:25:33.009Z,25.09
2018-09-20T09:28:01.635Z,25.11
2018-09-20T09:30:30.300Z,25.25
2018-09-20T09:32:58.986Z,25.27
2018-09-20T09:35:27.614Z,25.29
2018-09-20T09:37:56.269Z,25.40
2018-09-20T09:40:24.924Z,25.46
2018-09-20T09:42:53.459Z,25.44
2018-09-20T09:45:22.064Z,25.40
2018-09-20T09:47:50.778Z,25.44
2018-09-20T09:50:19.437Z,25.50
2018-09-20T09:52:48.222Z,25.50
2018-09-20T09:55:16.870Z,25.58
2018-09-20T09:57:49.746Z,25.73
2018-09-20T10:00:22.625Z,25.75
2018-09-20T10:02:51.391Z,25.92
2018-09-20T10:05:20.078Z,25.90
2018-09-20T10:07:48.810Z,26.02
2018-09-20T10:10:17.581Z,26.03
2018-09-20T10:12:46.367Z,26.15
2018-09-20T10:15:15.059Z,26.16
2018-09-20T10:17:44.023Z,26.17
2018-09-20T10:20:12.718Z,26.10
2018-09-20T10:22:41.373Z,26.17
2018-09-20T10:25:10.089Z,26.22
2018-09-20T10:27:38.710Z,26.23
2018-09-20T10:30:07.684Z,26.31
2018-09-20T10:32:36.372Z,26.34
2018-09-20T10:35:05.839Z,26.59
2018-09-20T10:37:35.038Z,26.57
2018-09-20T10:40:03.956Z,26.61
2018-09-20T10:42:32.631Z,26.48
2018-09-20T10:45:01.307Z,26.52
2018-09-20T10:47:30.021Z,26.61
2018-09-20T10:49:58.797Z,26.70
2018-09-20T10:52:28.706Z,26.79
2018-09-20T10:54:57.492Z,26.91
2018-09-20T10:57:26.196Z,26.93
2018-09-20T10:59:54.985Z,26.88
2018-09-20T11:02:23.680Z,26.88
2018-09-20T11:04:52.403Z,26.95
2018-09-20T11:07:21.119Z,26.97
2018-09-20T11:09:49.827Z,27.09
2018-09-20T11:12:18.722Z,27.22
2018-09-20T11:14:47.426Z,27.34
2018-09-20T11:17:17.326Z,27.40
2018-09-20T11:19:46.029Z,27.44
2018-09-20T11:22:14.746Z,27.59
2018-09-20T11:24:43.477Z,27.51
2018-09-20T11:27:12.169Z,27.51
2018-09-20T11:29:40.842Z,27.56
2018-09-20T11:32:09.504Z,27.67
2018-09-20T11:34:38.324Z,27.81
2018-09-20T11:37:07.055Z,27.91
2018-09-20T11:39:35.791Z,28.00
2018-09-20T11:42:04.563Z,28.17
2018-09-20T11:44:33.293Z,28.08
2018-09-20T11:47:01.969Z,28.17
2018-09-20T11:49:30.619Z,28.33
2018-09-20T11:51:59.437Z,28.30
2018-09-20T11:54:28.121Z,28.41
2018-09-20T11:56:57.226Z,28.65
2018-09-20T11:59:25.975Z,28.73
2018-09-20T12:01:55.075Z,28.77
2018-09-20T12:04:23.678Z,28.89
2018-09-20T12:06:52.339Z,28.93
2018-09-20T12:09:20.967Z,29.00
2018-09-20T12:11:49.614Z,29.08
2018-09-20T12:14:18.293Z,29.09
2018-09-20T12:16:46.966Z,29.22
2018-09-20T12:19:15.592Z,29.24
2018-09-20T12:21:44.220Z,29.29
2018-09-20T12:24:12.843Z,29.32
2018-09-20T12:26:41.435Z,29.42
2018-09-20T12:29:10.040Z,29.54
2018-09-20T12:31:38.692Z,29.60
2018-09-20T12:34:07.373Z,29.70
2018-09-20T12:36:36.011Z,29.98
2018-09-20T12:39:07.303Z,30.14
2018-09-20T12:41:35.905Z,30.31
2018-09-20T12:44:04.635Z,30.45
2018-09-20T12:46:34.315Z,30.54
2018-09-20T12:49:03.324Z,30.71
2018-09-20T12:51:31.978Z,30.96
2018-09-20T12:54:00.687Z,30.79
2018-09-20T12:56:29.546Z,30.81
2018-09-20T12:58:58.236Z,30.87
2018-09-20T13:01:26.844Z,30.70
2018-09-20T13:03:55.567Z,30.51
2018-09-20T13:06:24.215Z,30.52
2018-09-20T13:08:52.830Z,30.96
2018-09-20T13:11:21.442Z,31.24
2018-09-20T13:13:50.050Z,31.43
2018-09-20T13:16:18.715Z,31.55
2018-09-20T13:18:48.334Z,31.65
2018-09-20T13:21:16.951Z,31.89
2018-09-20T13:23:45.594Z,32.08
2018-09-20T13:26:14.241Z,32.18
2018-09-20T13:28:42.882Z,32.22
2018-09-20T13:31:17.811Z,32.29
2018-09-20T13:33:46.478Z,32.20
2018-09-20T13:36:15.119Z,32.30
2018-09-20T13:38:43.784Z,32.32
2018-09-20T13:41:12.418Z,32.24
2018-09-20T13:43:41.054Z,32.07
2018-09-20T13:46:09.711Z,32.10
2018-09-20T13:48:39.033Z,32.08
2018-09-20T13:51:07.815Z,32.12
2018-09-20T13:53:36.398Z,32.30
2018-09-20T13:56:05.018Z,32.29
2018-09-20T13:58:33.652Z,32.54
2018-09-20T14:01:02.272Z,32.89
2018-09-20T14:03:30.919Z,33.30
2018-09-20T14:05:59.661Z,33.58
2018-09-20T14:08:28.313Z,33.85
2018-09-20T14:10:56.930Z,34.39
2018-09-20T14:13:25.579Z,34.92
2018-09-20T14:15:54.242Z,35.67
2018-09-20T14:18:22.857Z,36.06
2018-09-20T14:20:51.457Z,36.24
2018-09-20T14:23:20.077Z,36.59
2018-09-20T14:25:48.696Z,36.86
2018-09-20T14:28:17.344Z,36.61
2018-09-20T14:30:46.011Z,36.78
2018-09-20T14:33:14.791Z,36.94
2018-09-20T14:35:43.417Z,37.03
2018-09-20T14:38:12.199Z,37.21
2018-09-20T14:40:40.829Z,37.47
2018-09-20T14:43:09.492Z,37.06
2018-09-20T14:45:38.247Z,36.87
2018-09-20T14:48:07.017Z,37.13
2018-09-20T14:50:35.630Z,37.62
2018-09-20T14:53:04.349Z,37.32
2018-09-20T14:55:33.025Z,37.27
2018-09-20T14:58:01.658Z,37.75
2018-09-20T15:00:30.307Z,37.93
2018-09-20T15:02:58.954Z,37.69
2018-09-20T15:05:27.612Z,38.22
2018-09-20T15:07:56.325Z,38.12
2018-09-20T15:10:24.945Z,37.96
2018-09-20T15:12:53.544Z,38.03
2018-09-20T15:15:22.160Z,38.39
2018-09-20T15:17:50.760Z,38.04
2018-09-20T15:20:19.433Z,38.24
2018-09-20T15:22:48.117Z,38.23
2018-09-20T15:25:16.799Z,37.77
2018-09-20T15:27:45.550Z,37.42
2018-09-20T15:30:14.503Z,37.34
2018-09-20T15:32:43.282Z,37.11
2018-09-20T15:35:12.019Z,36.71
2018-09-20T15:37:40.727Z,37.06
2018-09-20T15:40:09.491Z,36.93
2018-09-20T15:42:38.222Z,36.54
2018-09-20T15:45:06.989Z,36.32
2018-09-20T15:47:35.997Z,36.07
2018-09-20T15:50:05.427Z,35.77
2018-09-20T15:52:34.098Z,35.58
2018-09-20T15:55:02.831Z,35.35
2018-09-20T15:57:31.491Z,35.10
2018-09-20T16:00:00.199Z,34.91
2018-09-20T16:02:28.911Z,34.80
2018-09-20T16:04:57.583Z,34.60
2018-09-20T16:07:26.291Z,34.25
2018-09-20T16:09:54.947Z,34.12
2018-09-20T16:12:23.811Z,33.64
2018-09-20T16:14:52.512Z,33.38
2018-09-20T16:17:21.115Z,33.04
2018-09-20T16:19:49.955Z,32.86
2018-09-20T16:22:18.824Z,32.64
2018-09-20T16:24:47.614Z,32.39
2018-09-20T16:27:16.364Z,32.04
2018-09-20T16:30:15.860Z,31.58
2018-09-20T16:32:50.663Z,30.66
2018-09-20T16:36:30.595Z,29.86
2018-09-20T16:39:05.192Z,29.16
2018-09-20T16:41:38.660Z,28.52
2018-09-20T16:44:08.112Z,28.00
2018-09-20T16:46:36.775Z,27.65
2018-09-20T16:49:05.559Z,27.26
2018-09-20T16:51:34.571Z,26.90
2018-09-20T16:54:03.468Z,26.54
2018-09-20T16:56:32.188Z,26.23
2018-09-20T16:59:00.778Z,25.97
2018-09-20T17:01:29.442Z,25.72
2018-09-20T17:03:58.157Z,25.49
2018-09-20T17:06:26.834Z,25.28
2018-09-20T17:08:55.464Z,25.08
2018-09-20T17:11:24.240Z,24.92
2018-09-20T17:13:52.917Z,24.77
2018-09-20T17:16:21.603Z,24.64
2018-09-20T17:18:50.263Z,24.48
2018-09-20T17:21:18.993Z,24.34
2018-09-20T17:23:47.643Z,24.20
2018-09-20T17:26:16.324Z,24.03
2018-09-20T17:28:45.004Z,23.86
2018-09-20T17:31:13.704Z,23.77
2018-09-20T17:33:42.361Z,23.66
2018-09-20T17:36:11.242Z,23.57
2018-09-20T17:38:40.814Z,23.49
2018-09-20T17:41:15.594Z,23.41
2018-09-20T17:43:52.807Z,23.35
2018-09-20T17:46:21.536Z,23.23
2018-09-20T17:48:50.129Z,23.20
2018-09-20T17:51:19.418Z,23.25
2018-09-20T17:53:49.167Z,23.17
2018-09-20T17:56:18.192Z,23.08
2018-09-20T17:58:47.375Z,22.98
2018-09-20T18:01:16.189Z,22.92
2018-09-20T18:03:44.846Z,22.91
2018-09-20T18:06:13.510Z,22.87
2018-09-20T18:08:42.208Z,22.80
2018-09-20T18:11:10.806Z,22.70
2018-09-20T18:13:39.493Z,22.64
2018-09-20T18:16:08.327Z,22.51
2018-09-20T18:18:37.069Z,22.46
2018-09-20T18:21:05.814Z,22.38
2018-09-20T18:23:34.600Z,22.34
2018-09-20T18:26:03.256Z,22.34
2018-09-20T18:28:31.980Z,22.32
2018-09-20T18:31:00.742Z,22.29
2018-09-20T18:33:29.657Z,22.23
2018-09-20T18:35:58.454Z,22.13
2018-09-20T18:38:27.187Z,22.04
2018-09-20T18:40:55.914Z,22.03
2018-09-20T18:43:24.621Z,21.95
2018-09-20T18:45:53.390Z,21.91
2018-09-20T18:48:22.181Z,21.88
2018-09-20T18:50:50.819Z,21.85
2018-09-20T18:53:20.611Z,21.81
2018-09-20T18:55:49.321Z,21.81
2018-09-20T18:58:18.010Z,21.74
2018-09-20T19:00:46.701Z,21.70
2018-09-20T19:03:15.487Z,21.63
2018-09-20T19:05:44.129Z,21.57
2018-09-20T19:08:12.826Z,21.54
2018-09-20T19:10:41.454Z,21.52
2018-09-20T19:13:10.149Z,21.50
2018-09-20T19:15:38.813Z,21.39
2018-09-20T19:18:07.486Z,21.35
2018-09-20T19:20:36.163Z,21.31
2018-09-20T19:23:04.839Z,21.25
2018-09-20T19:25:33.747Z,21.17
2018-09-20T19:28:02.402Z,21.13
2018-09-20T19:30:31.022Z,21.12
2018-09-20T19:32:59.731Z,21.05
2018-09-20T19:35:28.370Z,21.01
2018-09-20T19:37:57.045Z,21.00
2018-09-20T19:40:25.744Z,20.98
2018-09-20T19:42:54.420Z,20.97
2018-09-20T19:45:23.054Z,20.95
2018-09-20T19:48:20.895Z,21.06
2018-09-20T19:50:49.510Z,21.06
2018-09-20T19:53:18.209Z,20.99
2018-09-20T19:55:46.922Z,20.91
2018-09-20T19:58:15.590Z,20.83
2018-09-20T20:00:44.257Z,20.83
2018-09-20T20:03:12.963Z,20.83
2018-09-20T20:05:42.534Z,20.80
2018-09-20T20:08:11.419Z,20.83
2018-09-20T20:10:40.068Z,20.80
2018-09-20T20:13:08.735Z,20.70
2018-09-20T20:15:37.577Z,20.63
2018-09-20T20:18:05.980Z,20.61
2018-09-20T20:20:34.662Z,20.59
2018-09-20T20:23:03.343Z,20.49
2018-09-20T20:25:32.075Z,20.42
2018-09-20T20:28:00.758Z,20.36
2018-09-20T20:30:29.410Z,20.32
2018-09-20T20:32:58.079Z,20.28
2018-09-20T20:35:26.742Z,20.25
2018-09-20T20:37:55.391Z,20.34
2018-09-20T20:40:24.018Z,20.35
2018-09-20T20:42:52.667Z,20.32
2018-09-20T20:45:21.339Z,20.29
2018-09-20T20:47:50.426Z,20.22
2018-09-20T20:50:19.415Z,20.22
2018-09-20T20:52:48.169Z,20.26
2018-09-20T20:55:22.329Z,20.24
2018-09-20T20:57:50.932Z,20.21
2018-09-20T21:00:19.539Z,20.16
2018-09-20T21:02:48.185Z,20.11
2018-09-20T21:05:16.864Z,20.10
2018-09-20T21:07:45.495Z,20.08
2018-09-20T21:10:14.203Z,20.01
2018-09-20T21:12:42.934Z,19.94
2018-09-20T21:15:11.530Z,19.87
2018-09-20T21:17:40.238Z,19.87
2018-09-20T21:20:09.003Z,19.84
2018-09-20T21:22:37.690Z,19.79
2018-09-20T21:25:06.338Z,19.78
2018-09-20T21:27:35.021Z,19.78
2018-09-20T21:30:03.738Z,19.75
2018-09-20T21:32:32.355Z,19.74
2018-09-20T21:35:01.040Z,19.68
2018-09-20T21:37:29.646Z,19.61
2018-09-20T21:39:58.357Z,19.58
2018-09-20T21:42:26.978Z,19.61
2018-09-20T21:44:55.568Z,19.63
2018-09-20T21:47:24.371Z,19.59
2018-09-20T21:49:52.974Z,19.55
2018-09-20T21:52:21.856Z,19.52
2018-09-20T21:54:50.513Z,19.59
2018-09-20T21:57:19.163Z,19.57
2018-09-20T21:59:47.772Z,19.51
2018-09-20T22:02:20.867Z,19.51
2018-09-20T22:04:49.526Z,19.44
2018-09-20T22:07:18.107Z,19.39
2018-09-20T22:09:46.959Z,19.34
2018-09-20T22:12:15.583Z,19.29
2018-09-20T22:14:44.202Z,19.24
2018-09-20T22:17:12.827Z,19.14
2018-09-20T22:19:41.413Z,19.06
2018-09-20T22:22:10.033Z,18.99
2018-09-20T22:24:38.682Z,18.90
2018-09-20T22:27:07.326Z,18.82
2018-09-20T22:29:36.605Z,18.76
2018-09-20T22:32:05.242Z,18.73
2018-09-20T22:34:33.849Z,18.68
2018-09-20T22:37:02.455Z,18.65
2018-09-20T22:39:31.055Z,18.62
2018-09-20T22:41:59.733Z,18.56
2018-09-20T22:44:28.355Z,18.56
2018-09-20T22:46:57.006Z,18.52
2018-09-20T22:49:25.641Z,18.49
2018-09-20T22:51:54.255Z,18.43
2018-09-20T22:54:22.925Z,18.40
2018-09-20T22:56:51.565Z,18.34
2018-09-20T22:59:20.150Z,18.28
2018-09-20T23:01:49.037Z,18.21
2018-09-20T23:04:17.672Z,18.14
2018-09-20T23:06:46.309Z,18.08
2018-09-20T23:09:14.927Z,18.00
2018-09-20T23:11:43.654Z,17.95
2018-09-20T23:14:12.293Z,17.93
2018-09-20T23:16:40.945Z,17.88
2018-09-20T23:19:09.685Z,17.83
2018-09-20T23:21:38.295Z,17.80
2018-09-20T23:24:07.127Z,17.82
2018-09-20T23:26:35.742Z,17.81
2018-09-20T23:29:04.358Z,17.76
2018-09-20T23:31:33.047Z,17.70
2018-09-20T23:34:01.657Z,17.66
2018-09-20T23:36:30.312Z,17.62
2018-09-20T23:38:58.935Z,17.59
2018-09-20T23:41:27.534Z,17.60
2018-09-20T23:43:56.119Z,17.58
2018-09-20T23:46:24.728Z,17.55
2018-09-20T23:48:53.354Z,17.54
2018-09-20T23:51:22.150Z,17.51
2018-09-20T23:53:50.742Z,17.47
2018-09-20T23:56:24.726Z,17.49
